Scroll down
FLIGHT INFORMATION
United Airlines

UAL606

At Arrival Gate

KVCV
 KORD
DATE: 2020-06-06
GATE:  -
GATE DEPARTURE: 02:11
TAKEOFF: 02:17
DATE: 2020-06-06
GATE:  -
LANDING: 05:24
GATE ARRIVAL: 05:29
FLIGHT DATA
Crew: DOUGLAS MORLAN
Speed: 499 kts Altitude: 37000 ft
Stage Length: 1450 nm
Route: KVCV HELDE HEC GLACO PGS ALS HYS IRK KORD
Block Time:  -  Flight Time:  -
Fuel Used: 65840 LB
TRACK DATA
50000 FT1000 KT
AIRCRAFT INFO AND CUMULATIVE STATS
Aircraft Type: B744
Registration: N174UA
SELCAL: FGDP MSN/LN: 24381 / 762
Operator: UNITED AIRLINES
Total Flights: 2 
Total Block Time: 7.4 Total Flight Time: 7
Total Fuel Used: 154135 LB
DATALINK LOG | Newest first | Current as of: 2020-10-20 17:02:49
LABEL SEQUENCE CONTENT Dn/Up
QD293605:29 48▼ Dn
QC243105:24▼ Dn
GA0818ADVANCED GATE ASSIGNMENTS NOT YET AVAILABLE AT THIS AIRPORT▲ Up
GR0818KORD 05:17 DIPL/VIP YES▼ Dn
2U2407KORD 060351Z 06003KT 10SM FEW060 24/18 A2993 RMK AO2 SLP130 T02440183 $▲ Up
2S2435KORD▼ Dn
5R4457ALS 03:28z FL349 HYS 04:05z IRK M0.84 81.1 -15 255/33 KORD 05:17z▼ Dn
5R4054GLACO 02:29z FL313 PGS 02:44z ALS M0.84 101.5 -6 183/87 KORD 05:16z▼ Dn
5Z32476 JUN 20 02:31:56z / FLT DECK GOOD / ACF POS GOOD / GRND SERVICES GOOD / MAINT GOOD▼ Dn
2U2840KORD 060151Z 02005KT 10SM FEW055 FEW075 SCT250 28/17 A2987 RMK AO2 SLP110 T02830172 $▲ Up
2S2742KORD▼ Dn
QB183702:17▼ Dn
QA112702:11 113.8▼ Dn
A35045CLEARED TO KORD VIA HELDE J6 HEC J64 PGS ALS HYS IRK BDF7. SQUAWK 7620.▲ Up
Q04943[LINK ACK]▲ Up
Q04943[LINK TEST]▼ Dn


AIRCRAFT HISTORY
FLIGHT DATE FLIGHT NO. ORIGIN DESTINATION ROUTE BLOCK TIME FLIGHT TIME FUEL USED (LB) PILOT
2020-10-16UAL305KORD KSFO KORD OLINN OREOS OBENE OGALE LNK DRABS HCT VOAXA ELLFF WEEMN MANRD TRALP GDGET CRLES KATTS RUMPS OAL INYOE KSFO4.23.988295James W.
2020-06-06UAL606KVCV KORD KVCV HELDE HEC GLACO PGS ALS HYS IRK KORD3.33.165840Douglas Morlan